PWSweather.com
Personal Weather Stations
Station Observations
WODONGA
Wodonga, WodongaAU 3690

WodongaWodongaAU 3690

Lat: -36.121, Lon: 146.87

Elevation: 541

Station Type: Weather Station

http://www.wodongaweather.net

Latest ConditionsUpdated 1:30:03 PM GMT+10:10 Friday, Feb 12, 2016
Currently Today's Max Today's Min Today's Average
Temperature 95.4°F35.2°C 96.4°F35.8°C 65.1°F18.4°C 76.0°F24.4°C
Dew Point 60.9°F16.1°C 67.5°F19.7°C 53.7°F12.1°C 59.3°F15.2°C
Winds 7.2 mph NNW11.6 kmh NNW 8.2 mph NW13.2 kmh NW - 3.1 mph 5.0 kmh
Wind Gusts 13.0 mph20.9 kmh 13.0 mph20.9 kmh - -
Humidity 32% 74% 30% 58%
Pressure 29.90 in1012.5 mb 29.98 in1015.2 mb 29.90 in1012.5 mb -
Hour Temp Dew Point Humidity Winds Wind Gusts Pressure Precip Precip Rate Daily Precip Total
01:30 PM 95.4°F35.2°C 60.9°F16.1°C 32% 7.2 mph NNW11.6 kmh NNW 13.0 mph20.9 kmh 29.90 in1012.5 mb 0.00 in0.0 mm 0.00 in0.0 mm 0.00 in0.0 mm
01:25 PM 95.7°F35.4°C 59.4°F15.2°C 30% 8.2 mph NW13.2 kmh NW 13.0 mph20.9 kmh 29.90 in1012.5 mb 0.00 in0.0 mm 0.00 in0.0 mm 0.00 in0.0 mm
01:20 PM 96.3°F35.7°C 60.8°F16.0°C 31% 5.4 mph W8.7 kmh W 9.2 mph14.8 kmh 29.90 in1012.5 mb 0.00 in0.0 mm 0.00 in0.0 mm 0.00 in0.0 mm
01:15 PM 96.4°F35.8°C 61.8°F16.6°C 32% 3.7 mph S6.0 kmh S 6.9 mph11.1 kmh 29.91 in1012.9 mb 0.00 in0.0 mm 0.00 in0.0 mm 0.00 in0.0 mm
01:10 PM 96.4°F35.8°C 65.2°F18.4°C 36% 3.4 mph SE5.5 kmh SE 5.4 mph8.7 kmh 29.91 in1012.9 mb 0.00 in0.0 mm 0.00 in0.0 mm 0.00 in0.0 mm
01:05 PM 95.0°F35.0°C 65.5°F18.6°C 38% 3.3 mph N5.3 kmh N 4.5 mph7.2 kmh 29.91 in1012.9 mb 0.00 in0.0 mm 0.00 in0.0 mm 0.00 in0.0 mm
01:00 PM 93.9°F34.4°C 64.5°F18.1°C 38% 4.4 mph NE7.1 kmh NE 8.3 mph13.4 kmh 29.91 in1012.9 mb 0.00 in0.0 mm 0.00 in0.0 mm 0.00 in0.0 mm
12:55 PM 94.1°F34.5°C 63.9°F17.7°C 37% 5.6 mph ENE9.0 kmh ENE 8.3 mph13.4 kmh 29.91 in1012.9 mb 0.00 in0.0 mm 0.00 in0.0 mm 0.00 in0.0 mm
12:50 PM 94.3°F34.6°C 64.1°F17.8°C 37% 5.1 mph E8.2 kmh E 8.3 mph13.4 kmh 29.91 in1012.9 mb 0.00 in0.0 mm 0.00 in0.0 mm 0.00 in0.0 mm
12:45 PM 95.2°F35.1°C 65.6°F18.7°C 38% 4.4 mph ESE7.1 kmh ESE 6.9 mph11.1 kmh 29.91 in1012.9 mb 0.00 in0.0 mm 0.00 in0.0 mm 0.00 in0.0 mm
12:40 PM 95.0°F35.0°C 66.2°F19.0°C 39% 4.5 mph ESE7.2 kmh ESE 6.9 mph11.1 kmh 29.91 in1012.9 mb 0.00 in0.0 mm 0.00 in0.0 mm 0.00 in0.0 mm
12:35 PM 94.6°F34.8°C 65.9°F18.8°C 39% 5.3 mph SE8.5 kmh SE 7.6 mph12.2 kmh 29.91 in1012.9 mb 0.00 in0.0 mm 0.00 in0.0 mm 0.00 in0.0 mm
12:30 PM 94.8°F34.9°C 66.8°F19.3°C 40% 5.5 mph SE8.9 kmh SE 7.6 mph12.2 kmh 29.91 in1012.9 mb 0.00 in0.0 mm 0.00 in0.0 mm 0.00 in0.0 mm
12:25 PM 94.8°F34.9°C 67.5°F19.7°C 41% 5.0 mph ESE8.0 kmh ESE 7.6 mph12.2 kmh 29.92 in1013.2 mb 0.00 in0.0 mm 0.00 in0.0 mm 0.00 in0.0 mm
12:20 PM 94.5°F34.7°C 66.5°F19.2°C 40% 4.9 mph SE7.9 kmh SE 7.6 mph12.2 kmh 29.92 in1013.2 mb 0.00 in0.0 mm 0.00 in0.0 mm 0.00 in0.0 mm
12:15 PM 94.5°F34.7°C 66.5°F19.2°C 40% 4.5 mph SE7.2 kmh SE 6.9 mph11.1 kmh 29.92 in1013.2 mb 0.00 in0.0 mm 0.00 in0.0 mm 0.00 in0.0 mm
12:10 PM 93.7°F34.3°C 66.6°F19.2°C 41% 4.0 mph SE6.4 kmh SE 5.4 mph8.7 kmh 29.93 in1013.5 mb 0.00 in0.0 mm 0.00 in0.0 mm 0.00 in0.0 mm
12:05 PM 93.2°F34.0°C 66.8°F19.3°C 42% 3.1 mph SSE5.0 kmh SSE 5.4 mph8.7 kmh 29.93 in1013.5 mb 0.00 in0.0 mm 0.00 in0.0 mm 0.00 in0.0 mm
12:00 PM 92.3°F33.5°C 66.0°F18.9°C 42% 2.8 mph SE4.5 kmh SE 4.5 mph7.2 kmh 29.93 in1013.5 mb 0.00 in0.0 mm 0.00 in0.0 mm 0.00 in0.0 mm
11:55 AM 92.3°F33.5°C 66.0°F18.9°C 42% 3.9 mph SE6.3 kmh SE 5.4 mph8.7 kmh 29.93 in1013.5 mb 0.00 in0.0 mm 0.00 in0.0 mm 0.00 in0.0 mm
11:50 AM 92.5°F33.6°C 66.8°F19.3°C 43% 4.3 mph SE6.9 kmh SE 5.4 mph8.7 kmh 29.93 in1013.5 mb 0.00 in0.0 mm 0.00 in0.0 mm 0.00 in0.0 mm
11:45 AM 91.6°F33.1°C 66.7°F19.3°C 44% 3.8 mph SE6.1 kmh SE 5.4 mph8.7 kmh 29.93 in1013.5 mb 0.00 in0.0 mm 0.00 in0.0 mm 0.00 in0.0 mm
11:40 AM 91.2°F32.9°C 66.3°F19.1°C 44% 4.2 mph ENE6.8 kmh ENE 7.6 mph12.2 kmh 29.93 in1013.5 mb 0.00 in0.0 mm 0.00 in0.0 mm 0.00 in0.0 mm
11:35 AM 91.4°F33.0°C 65.8°F18.8°C 43% 4.3 mph SE6.9 kmh SE 7.6 mph12.2 kmh 29.94 in1013.9 mb 0.00 in0.0 mm 0.00 in0.0 mm 0.00 in0.0 mm
11:30 AM 91.2°F32.9°C 66.3°F19.1°C 44% 3.7 mph S6.0 kmh S 5.4 mph8.7 kmh 29.94 in1013.9 mb 0.00 in0.0 mm 0.00 in0.0 mm 0.00 in0.0 mm
11:25 AM 90.5°F32.5°C 66.3°F19.1°C 45% 3.4 mph SW5.5 kmh SW 4.5 mph7.2 kmh 29.94 in1013.9 mb 0.00 in0.0 mm 0.00 in0.0 mm 0.00 in0.0 mm
11:20 AM 90.3°F32.4°C 65.5°F18.6°C 44% 3.1 mph SW5.0 kmh SW 4.5 mph7.2 kmh 29.94 in1013.9 mb 0.00 in0.0 mm 0.00 in0.0 mm 0.00 in0.0 mm
11:15 AM 89.4°F31.9°C 65.3°F18.5°C 45% 2.6 mph S4.2 kmh S 4.5 mph7.2 kmh 29.94 in1013.9 mb 0.00 in0.0 mm 0.00 in0.0 mm 0.00 in0.0 mm
11:10 AM 87.6°F30.9°C 65.0°F18.3°C 47% 3.0 mph N4.8 kmh N 4.5 mph7.2 kmh 29.95 in1014.2 mb 0.00 in0.0 mm 0.00 in0.0 mm 0.00 in0.0 mm
11:05 AM 86.7°F30.4°C 63.5°F17.5°C 46% 4.4 mph N7.1 kmh N 6.0 mph9.7 kmh 29.95 in1014.2 mb 0.00 in0.0 mm 0.00 in0.0 mm 0.00 in0.0 mm
11:00 AM 86.4°F30.2°C 63.8°F17.7°C 47% 5.3 mph N8.5 kmh N 6.9 mph11.1 kmh 29.95 in1014.2 mb 0.00 in0.0 mm 0.00 in0.0 mm 0.00 in0.0 mm
10:55 AM 86.5°F30.3°C 64.6°F18.1°C 48% 4.4 mph N7.1 kmh N 6.9 mph11.1 kmh 29.95 in1014.2 mb 0.00 in0.0 mm 0.00 in0.0 mm 0.00 in0.0 mm
10:50 AM 86.5°F30.3°C 65.7°F18.7°C 50% 3.6 mph NW5.8 kmh NW 5.4 mph8.7 kmh 29.96 in1014.6 mb 0.00 in0.0 mm 0.00 in0.0 mm 0.00 in0.0 mm
10:45 AM 85.3°F29.6°C 64.0°F17.8°C 49% 4.2 mph NW6.8 kmh NW 7.6 mph12.2 kmh 29.96 in1014.6 mb 0.00 in0.0 mm 0.00 in0.0 mm 0.00 in0.0 mm
10:40 AM 84.7°F29.3°C 64.1°F17.8°C 50% 5.2 mph N8.4 kmh N 7.6 mph12.2 kmh 29.96 in1014.6 mb 0.00 in0.0 mm 0.00 in0.0 mm 0.00 in0.0 mm
10:35 AM 84.7°F29.3°C 64.1°F17.8°C 50% 5.0 mph N8.0 kmh N 7.6 mph12.2 kmh 29.96 in1014.6 mb 0.00 in0.0 mm 0.00 in0.0 mm 0.00 in0.0 mm
10:30 AM 85.1°F29.5°C 64.4°F18.0°C 50% 4.0 mph NNE6.4 kmh NNE 6.0 mph9.7 kmh 29.96 in1014.6 mb 0.00 in0.0 mm 0.00 in0.0 mm 0.00 in0.0 mm
10:25 AM 84.7°F29.3°C 65.2°F18.4°C 52% 4.0 mph NE6.4 kmh NE 5.4 mph8.7 kmh 29.96 in1014.6 mb 0.00 in0.0 mm 0.00 in0.0 mm 0.00 in0.0 mm
10:20 AM 84.4°F29.1°C 64.3°F17.9°C 51% 4.7 mph NNE7.6 kmh NNE 7.6 mph12.2 kmh 29.96 in1014.6 mb 0.00 in0.0 mm 0.00 in0.0 mm 0.00 in0.0 mm
10:15 AM 83.7°F28.7°C 64.2°F17.9°C 52% 4.8 mph N7.7 kmh N 7.6 mph12.2 kmh 29.96 in1014.6 mb 0.00 in0.0 mm 0.00 in0.0 mm 0.00 in0.0 mm
10:10 AM 83.7°F28.7°C 64.2°F17.9°C 52% 4.7 mph N7.6 kmh N 7.6 mph12.2 kmh 29.96 in1014.6 mb 0.00 in0.0 mm 0.00 in0.0 mm 0.00 in0.0 mm
10:05 AM 83.3°F28.5°C 63.9°F17.7°C 52% 6.1 mph NNE9.8 kmh NNE 9.2 mph14.8 kmh 29.96 in1014.6 mb 0.00 in0.0 mm 0.00 in0.0 mm 0.00 in0.0 mm
10:00 AM 83.3°F28.5°C 64.4°F18.0°C 53% 6.8 mph NNE10.9 kmh NNE 9.2 mph14.8 kmh 29.96 in1014.6 mb 0.00 in0.0 mm 0.00 in0.0 mm 0.00 in0.0 mm
09:55 AM 82.9°F28.3°C 63.6°F17.6°C 52% 5.0 mph N8.0 kmh N 8.3 mph13.4 kmh 29.96 in1014.6 mb 0.00 in0.0 mm 0.00 in0.0 mm 0.00 in0.0 mm
09:50 AM 83.5°F28.6°C 64.1°F17.8°C 52% 4.3 mph ENE6.9 kmh ENE 8.3 mph13.4 kmh 29.97 in1014.9 mb 0.00 in0.0 mm 0.00 in0.0 mm 0.00 in0.0 mm
09:35 AM 83.1°F28.4°C 64.3°F17.9°C 53% 3.7 mph E6.0 kmh E 7.6 mph12.2 kmh 29.97 in1014.9 mb 0.00 in0.0 mm 0.00 in0.0 mm 0.00 in0.0 mm
09:30 AM 82.8°F28.2°C 64.5°F18.1°C 54% 4.1 mph ESE6.6 kmh ESE 7.6 mph12.2 kmh 29.97 in1014.9 mb 0.00 in0.0 mm 0.00 in0.0 mm 0.00 in0.0 mm
09:25 AM 82.0°F27.8°C 64.3°F17.9°C 55% 4.0 mph ESE6.4 kmh ESE 5.4 mph8.7 kmh 29.97 in1014.9 mb 0.00 in0.0 mm 0.00 in0.0 mm 0.00 in0.0 mm
09:20 AM 81.3°F27.4°C 63.7°F17.6°C 55% 4.3 mph E6.9 kmh E 6.9 mph11.1 kmh 29.98 in1015.2 mb 0.00 in0.0 mm 0.00 in0.0 mm 0.00 in0.0 mm
09:15 AM 81.0°F27.2°C 63.3°F17.4°C 55% 4.7 mph E7.6 kmh E 7.6 mph12.2 kmh 29.97 in1014.9 mb 0.00 in0.0 mm 0.00 in0.0 mm 0.00 in0.0 mm
09:10 AM 80.4°F26.9°C 62.8°F17.1°C 55% 4.6 mph E7.4 kmh E 7.6 mph12.2 kmh 29.97 in1014.9 mb 0.00 in0.0 mm 0.00 in0.0 mm 0.00 in0.0 mm
09:05 AM 80.1°F26.7°C 63.5°F17.5°C 57% 4.8 mph E7.7 kmh E 6.0 mph9.7 kmh 29.98 in1015.2 mb 0.00 in0.0 mm 0.00 in0.0 mm 0.00 in0.0 mm
09:00 AM 79.5°F26.4°C 63.0°F17.2°C 57% 5.9 mph E9.5 kmh E 8.3 mph13.4 kmh 29.98 in1015.2 mb 0.00 in0.0 mm 0.00 in0.0 mm 0.00 in0.0 mm
08:55 AM 79.0°F26.1°C 62.5°F16.9°C 57% 6.5 mph E10.5 kmh E 8.3 mph13.4 kmh 29.98 in1015.2 mb 0.00 in0.0 mm 0.00 in0.0 mm 0.00 in0.0 mm
08:50 AM 78.4°F25.8°C 62.5°F16.9°C 58% 5.8 mph E9.3 kmh E 7.6 mph12.2 kmh 29.98 in1015.2 mb 0.00 in0.0 mm 0.00 in0.0 mm 0.00 in0.0 mm
08:45 AM 77.9°F25.5°C 62.0°F16.7°C 58% 5.6 mph E9.0 kmh E 7.6 mph12.2 kmh 29.98 in1015.2 mb 0.00 in0.0 mm 0.00 in0.0 mm 0.00 in0.0 mm
08:40 AM 77.2°F25.1°C 61.3°F16.3°C 58% 5.9 mph E9.5 kmh E 8.3 mph13.4 kmh 29.98 in1015.2 mb 0.00 in0.0 mm 0.00 in0.0 mm 0.00 in0.0 mm
08:35 AM 77.0°F25.0°C 61.6°F16.4°C 59% 5.7 mph E9.2 kmh E 8.3 mph13.4 kmh 29.98 in1015.2 mb 0.00 in0.0 mm 0.00 in0.0 mm 0.00 in0.0 mm
08:30 AM 76.5°F24.7°C 61.1°F16.2°C 59% 5.9 mph ESE9.5 kmh ESE 8.3 mph13.4 kmh 29.98 in1015.2 mb 0.00 in0.0 mm 0.00 in0.0 mm 0.00 in0.0 mm
08:25 AM 76.1°F24.5°C 61.2°F16.2°C 60% 6.8 mph ESE10.9 kmh ESE 9.8 mph15.8 kmh 29.98 in1015.2 mb 0.00 in0.0 mm 0.00 in0.0 mm 0.00 in0.0 mm
08:20 AM 75.6°F24.2°C 60.7°F15.9°C 60% 7.1 mph E11.4 kmh E 9.8 mph15.8 kmh 29.98 in1015.2 mb 0.00 in0.0 mm 0.00 in0.0 mm 0.00 in0.0 mm
08:15 AM 75.2°F24.0°C 60.4°F15.8°C 60% 6.2 mph E10.0 kmh E 8.3 mph13.4 kmh 29.98 in1015.2 mb 0.00 in0.0 mm 0.00 in0.0 mm 0.00 in0.0 mm
08:10 AM 74.7°F23.7°C 60.4°F15.8°C 61% 6.5 mph E10.5 kmh E 8.3 mph13.4 kmh 29.98 in1015.2 mb 0.00 in0.0 mm 0.00 in0.0 mm 0.00 in0.0 mm
08:05 AM 74.1°F23.4°C 59.8°F15.4°C 61% 6.7 mph E10.8 kmh E 8.3 mph13.4 kmh 29.98 in1015.2 mb 0.00 in0.0 mm 0.00 in0.0 mm 0.00 in0.0 mm
08:00 AM 73.8°F23.2°C 60.4°F15.8°C 63% 5.8 mph E9.3 kmh E 7.6 mph12.2 kmh 29.98 in1015.2 mb 0.00 in0.0 mm 0.00 in0.0 mm 0.00 in0.0 mm
07:55 AM 73.2°F22.9°C 59.9°F15.5°C 63% 6.4 mph E10.3 kmh E 9.2 mph14.8 kmh 29.98 in1015.2 mb 0.00 in0.0 mm 0.00 in0.0 mm 0.00 in0.0 mm
07:50 AM 72.5°F22.5°C 59.2°F15.1°C 63% 6.9 mph ESE11.1 kmh ESE 9.2 mph14.8 kmh 29.98 in1015.2 mb 0.00 in0.0 mm 0.00 in0.0 mm 0.00 in0.0 mm
07:45 AM 72.3°F22.4°C 59.5°F15.3°C 64% 6.6 mph E10.6 kmh E 7.6 mph12.2 kmh 29.98 in1015.2 mb 0.00 in0.0 mm 0.00 in0.0 mm 0.00 in0.0 mm
07:40 AM 71.8°F22.1°C 59.4°F15.2°C 65% 6.3 mph E10.1 kmh E 7.6 mph12.2 kmh 29.98 in1015.2 mb 0.00 in0.0 mm 0.00 in0.0 mm 0.00 in0.0 mm
07:35 AM 71.2°F21.8°C 59.3°F15.2°C 66% 6.2 mph E10.0 kmh E 8.3 mph13.4 kmh 29.98 in1015.2 mb 0.00 in0.0 mm 0.00 in0.0 mm 0.00 in0.0 mm
07:30 AM 70.7°F21.5°C 59.6°F15.3°C 68% 5.8 mph ESE9.3 kmh ESE 8.3 mph13.4 kmh 29.98 in1015.2 mb 0.00 in0.0 mm 0.00 in0.0 mm 0.00 in0.0 mm
07:25 AM 70.2°F21.2°C 59.1°F15.1°C 68% 5.5 mph ESE8.9 kmh ESE 7.6 mph12.2 kmh 29.98 in1015.2 mb 0.00 in0.0 mm 0.00 in0.0 mm 0.00 in0.0 mm
07:20 AM 69.8°F21.0°C 59.2°F15.1°C 69% 5.5 mph ESE8.9 kmh ESE 7.6 mph12.2 kmh 29.98 in1015.2 mb 0.00 in0.0 mm 0.00 in0.0 mm 0.00 in0.0 mm
07:15 AM 69.6°F20.9°C 59.4°F15.2°C 70% 5.2 mph ESE8.4 kmh ESE 6.0 mph9.7 kmh 29.98 in1015.2 mb 0.00 in0.0 mm 0.00 in0.0 mm 0.00 in0.0 mm
07:10 AM 68.9°F20.5°C 59.1°F15.1°C 71% 4.5 mph E7.2 kmh E 6.0 mph9.7 kmh 29.97 in1014.9 mb 0.00 in0.0 mm 0.00 in0.0 mm 0.00 in0.0 mm
07:05 AM 68.5°F20.3°C 59.2°F15.1°C 72% 3.8 mph SE6.1 kmh SE 5.4 mph8.7 kmh 29.97 in1014.9 mb 0.00 in0.0 mm 0.00 in0.0 mm 0.00 in0.0 mm
07:00 AM 68.2°F20.1°C 58.8°F14.9°C 72% 3.8 mph ESE6.1 kmh ESE 6.9 mph11.1 kmh 29.97 in1014.9 mb 0.00 in0.0 mm 0.00 in0.0 mm 0.00 in0.0 mm
06:55 AM 67.8°F19.9°C 58.9°F14.9°C 73% 3.3 mph E5.3 kmh E 6.9 mph11.1 kmh 29.97 in1014.9 mb 0.00 in0.0 mm 0.00 in0.0 mm 0.00 in0.0 mm
06:50 AM 67.5°F19.7°C 58.5°F14.7°C 73% 2.5 mph SE4.0 kmh SE 5.4 mph8.7 kmh 29.97 in1014.9 mb 0.00 in0.0 mm 0.00 in0.0 mm 0.00 in0.0 mm
06:45 AM 67.1°F19.5°C 58.2°F14.6°C 73% 1.4 mph SSE2.3 kmh SSE 3.1 mph5.0 kmh 29.97 in1014.9 mb 0.00 in0.0 mm 0.00 in0.0 mm 0.00 in0.0 mm
06:40 AM 66.7°F19.3°C 57.8°F14.3°C 73% 0.4 mph S0.6 kmh S 1.6 mph2.6 kmh 29.96 in1014.6 mb 0.00 in0.0 mm 0.00 in0.0 mm 0.00 in0.0 mm
06:35 AM 66.6°F19.2°C 58.0°F14.4°C 74% 0.3 mph SSW0.5 kmh SSW 1.6 mph2.6 kmh 29.96 in1014.6 mb 0.00 in0.0 mm 0.00 in0.0 mm 0.00 in0.0 mm
06:30 AM 66.2°F19.0°C 57.7°F14.3°C 74% 0.6 mph SW1.0 kmh SW 1.6 mph2.6 kmh 29.96 in1014.6 mb 0.00 in0.0 mm 0.00 in0.0 mm 0.00 in0.0 mm
06:25 AM 66.0°F18.9°C 57.5°F14.2°C 74% 0.7 mph SSW1.1 kmh SSW 1.6 mph2.6 kmh 29.96 in1014.6 mb 0.00 in0.0 mm 0.00 in0.0 mm 0.00 in0.0 mm
06:20 AM 65.8°F18.8°C 57.3°F14.1°C 74% 0.4 mph S0.6 kmh S 1.6 mph2.6 kmh 29.96 in1014.6 mb 0.00 in0.0 mm 0.00 in0.0 mm 0.00 in0.0 mm
06:15 AM 65.7°F18.7°C 57.2°F14.0°C 74% 0.2 mph SSW0.3 kmh SSW 0.7 mph1.1 kmh 29.95 in1014.2 mb 0.00 in0.0 mm 0.00 in0.0 mm 0.00 in0.0 mm
06:10 AM 65.3°F18.5°C 56.8°F13.8°C 74% 0.5 mph SW0.8 kmh SW 1.6 mph2.6 kmh 29.95 in1014.2 mb 0.00 in0.0 mm 0.00 in0.0 mm 0.00 in0.0 mm
06:05 AM 65.1°F18.4°C 56.3°F13.5°C 73% 0.7 mph SW1.1 kmh SW 1.6 mph2.6 kmh 29.95 in1014.2 mb 0.00 in0.0 mm 0.00 in0.0 mm 0.00 in0.0 mm
06:00 AM 65.1°F18.4°C 56.3°F13.5°C 73% 0.9 mph S1.4 kmh S 1.6 mph2.6 kmh 29.95 in1014.2 mb 0.00 in0.0 mm 0.00 in0.0 mm 0.00 in0.0 mm
05:55 AM 65.1°F18.4°C 56.3°F13.5°C 73% 1.3 mph S2.1 kmh S 2.2 mph3.5 kmh 29.95 in1014.2 mb 0.00 in0.0 mm 0.00 in0.0 mm 0.00 in0.0 mm
05:50 AM 65.1°F18.4°C 55.9°F13.3°C 72% 0.8 mph S1.3 kmh S 2.2 mph3.5 kmh 29.95 in1014.2 mb 0.00 in0.0 mm 0.00 in0.0 mm 0.00 in0.0 mm
05:45 AM 65.7°F18.7°C 56.4°F13.6°C 72% 0.5 mph SE0.8 kmh SE 1.6 mph2.6 kmh 29.94 in1013.9 mb 0.00 in0.0 mm 0.00 in0.0 mm 0.00 in0.0 mm
05:40 AM 65.7°F18.7°C 56.4°F13.6°C 72% 0.3 mph SSE0.5 kmh SSE 1.6 mph2.6 kmh 29.94 in1013.9 mb 0.00 in0.0 mm 0.00 in0.0 mm 0.00 in0.0 mm
05:35 AM 65.5°F18.6°C 56.2°F13.4°C 72% Calm Calm 0.7 mph1.1 kmh 29.94 in1013.9 mb 0.00 in0.0 mm 0.00 in0.0 mm 0.00 in0.0 mm
05:30 AM 65.5°F18.6°C 55.8°F13.2°C 71% Calm Calm 0.7 mph1.1 kmh 29.95 in1014.2 mb 0.00 in0.0 mm 0.00 in0.0 mm 0.00 in0.0 mm
05:25 AM 65.7°F18.7°C 56.0°F13.3°C 71% Calm Calm 0.7 mph1.1 kmh 29.95 in1014.2 mb 0.00 in0.0 mm 0.00 in0.0 mm 0.00 in0.0 mm
05:20 AM 65.7°F18.7°C 56.0°F13.3°C 71% 0.1 mph S0.2 kmh S 0.7 mph1.1 kmh 29.94 in1013.9 mb 0.00 in0.0 mm 0.00 in0.0 mm 0.00 in0.0 mm
05:15 AM 65.7°F18.7°C 56.0°F13.3°C 71% 0.6 mph S1.0 kmh S 1.6 mph2.6 kmh 29.94 in1013.9 mb 0.00 in0.0 mm 0.00 in0.0 mm 0.00 in0.0 mm
05:10 AM 65.5°F18.6°C 55.8°F13.2°C 71% 0.6 mph S1.0 kmh S 1.6 mph2.6 kmh 29.93 in1013.5 mb 0.00 in0.0 mm 0.00 in0.0 mm 0.00 in0.0 mm
05:05 AM 65.5°F18.6°C 55.8°F13.2°C 71% 0.2 mph S0.3 kmh S 0.7 mph1.1 kmh 29.94 in1013.9 mb 0.00 in0.0 mm 0.00 in0.0 mm 0.00 in0.0 mm
05:00 AM 65.8°F18.8°C 55.8°F13.2°C 70% 0.9 mph SSE1.4 kmh SSE 2.2 mph3.5 kmh 29.93 in1013.5 mb 0.00 in0.0 mm 0.00 in0.0 mm 0.00 in0.0 mm
04:55 AM 66.0°F18.9°C 56.0°F13.3°C 70% 1.2 mph SSE1.9 kmh SSE 2.2 mph3.5 kmh 29.93 in1013.5 mb 0.00 in0.0 mm 0.00 in0.0 mm 0.00 in0.0 mm
04:50 AM 66.2°F19.0°C 55.8°F13.2°C 69% 0.4 mph SSE0.6 kmh SSE 1.6 mph2.6 kmh 29.93 in1013.5 mb 0.00 in0.0 mm 0.00 in0.0 mm 0.00 in0.0 mm
04:45 AM 66.2°F19.0°C 55.8°F13.2°C 69% 0.2 mph S0.3 kmh S 0.7 mph1.1 kmh 29.93 in1013.5 mb 0.00 in0.0 mm 0.00 in0.0 mm 0.00 in0.0 mm
04:40 AM 66.0°F18.9°C 56.0°F13.3°C 70% 0.4 mph S0.6 kmh S 0.7 mph1.1 kmh 29.93 in1013.5 mb 0.00 in0.0 mm 0.00 in0.0 mm 0.00 in0.0 mm
04:35 AM 65.8°F18.8°C 55.4°F13.0°C 69% 1.1 mph S1.8 kmh S 1.6 mph2.6 kmh 29.93 in1013.5 mb 0.00 in0.0 mm 0.00 in0.0 mm 0.00 in0.0 mm
04:30 AM 66.0°F18.9°C 55.6°F13.1°C 69% 1.7 mph S2.7 kmh S 2.2 mph3.5 kmh 29.93 in1013.5 mb 0.00 in0.0 mm 0.00 in0.0 mm 0.00 in0.0 mm
04:25 AM 66.0°F18.9°C 55.6°F13.1°C 69% 1.7 mph S2.7 kmh S 2.2 mph3.5 kmh 29.92 in1013.2 mb 0.00 in0.0 mm 0.00 in0.0 mm 0.00 in0.0 mm
04:20 AM 66.4°F19.1°C 55.5°F13.1°C 68% 1.6 mph S2.6 kmh S 2.2 mph3.5 kmh 29.93 in1013.5 mb 0.00 in0.0 mm 0.00 in0.0 mm 0.00 in0.0 mm
04:15 AM 66.2°F19.0°C 55.3°F12.9°C 68% 1.7 mph S2.7 kmh S 2.2 mph3.5 kmh 29.93 in1013.5 mb 0.00 in0.0 mm 0.00 in0.0 mm 0.00 in0.0 mm
04:10 AM 66.2°F19.0°C 54.9°F12.7°C 67% 1.8 mph S2.9 kmh S 2.2 mph3.5 kmh 29.92 in1013.2 mb 0.00 in0.0 mm 0.00 in0.0 mm 0.00 in0.0 mm
04:05 AM 66.7°F19.3°C 55.5°F13.1°C 67% 1.8 mph S2.9 kmh S 2.2 mph3.5 kmh 29.92 in1013.2 mb 0.00 in0.0 mm 0.00 in0.0 mm 0.00 in0.0 mm
04:00 AM 66.9°F19.4°C 55.2°F12.9°C 66% 1.5 mph S2.4 kmh S 2.2 mph3.5 kmh 29.92 in1013.2 mb 0.00 in0.0 mm 0.00 in0.0 mm 0.00 in0.0 mm
03:55 AM 67.1°F19.5°C 55.0°F12.8°C 65% 1.3 mph S2.1 kmh S 2.2 mph3.5 kmh 29.92 in1013.2 mb 0.00 in0.0 mm 0.00 in0.0 mm 0.00 in0.0 mm
03:50 AM 67.3°F19.6°C 55.1°F12.8°C 65% 1.4 mph S2.3 kmh S 2.2 mph3.5 kmh 29.92 in1013.2 mb 0.00 in0.0 mm 0.00 in0.0 mm 0.00 in0.0 mm
03:45 AM 67.3°F19.6°C 55.1°F12.8°C 65% 0.8 mph SSW1.3 kmh SSW 2.2 mph3.5 kmh 29.92 in1013.2 mb 0.00 in0.0 mm 0.00 in0.0 mm 0.00 in0.0 mm
03:40 AM 67.3°F19.6°C 54.7°F12.6°C 64% Calm Calm 0.7 mph1.1 kmh 29.92 in1013.2 mb 0.00 in0.0 mm 0.00 in0.0 mm 0.00 in0.0 mm
03:35 AM 67.5°F19.7°C 54.9°F12.7°C 64% Calm Calm -- 29.93 in1013.5 mb 0.00 in0.0 mm 0.00 in0.0 mm 0.00 in0.0 mm
03:30 AM 67.5°F19.7°C 54.9°F12.7°C 64% 0.1 mph SW0.2 kmh SW 0.7 mph1.1 kmh 29.92 in1013.2 mb 0.00 in0.0 mm 0.00 in0.0 mm 0.00 in0.0 mm
03:25 AM 67.6°F19.8°C 55.0°F12.8°C 64% 0.7 mph SSW1.1 kmh SSW 2.2 mph3.5 kmh 29.92 in1013.2 mb 0.00 in0.0 mm 0.00 in0.0 mm 0.00 in0.0 mm
03:20 AM 67.8°F19.9°C 55.2°F12.9°C 64% 0.6 mph S1.0 kmh S 2.2 mph3.5 kmh 29.92 in1013.2 mb 0.00 in0.0 mm 0.00 in0.0 mm 0.00 in0.0 mm
03:15 AM 67.8°F19.9°C 54.8°F12.7°C 63% Calm Calm -- 29.92 in1013.2 mb 0.00 in0.0 mm 0.00 in0.0 mm 0.00 in0.0 mm
03:10 AM 67.8°F19.9°C 54.8°F12.7°C 63% 0.6 mph S1.0 kmh S 1.6 mph2.6 kmh 29.93 in1013.5 mb 0.00 in0.0 mm 0.00 in0.0 mm 0.00 in0.0 mm
03:05 AM 68.0°F20.0°C 55.0°F12.8°C 63% 1.5 mph S2.4 kmh S 2.2 mph3.5 kmh 29.92 in1013.2 mb 0.00 in0.0 mm 0.00 in0.0 mm 0.00 in0.0 mm
03:00 AM 68.2°F20.1°C 54.7°F12.6°C 62% 1.8 mph S2.9 kmh S 2.2 mph3.5 kmh 29.92 in1013.2 mb 0.00 in0.0 mm 0.00 in0.0 mm 0.00 in0.0 mm
02:55 AM 68.5°F20.3°C 55.0°F12.8°C 62% 1.8 mph S2.9 kmh S 2.2 mph3.5 kmh 29.92 in1013.2 mb 0.00 in0.0 mm 0.00 in0.0 mm 0.00 in0.0 mm
02:50 AM 68.7°F20.4°C 55.2°F12.9°C 62% 1.7 mph S2.7 kmh S 2.2 mph3.5 kmh 29.92 in1013.2 mb 0.00 in0.0 mm 0.00 in0.0 mm 0.00 in0.0 mm
02:45 AM 68.9°F20.5°C 55.4°F13.0°C 62% 1.9 mph S3.1 kmh S 3.1 mph5.0 kmh 29.92 in1013.2 mb 0.00 in0.0 mm 0.00 in0.0 mm 0.00 in0.0 mm
02:40 AM 69.3°F20.7°C 55.7°F13.2°C 62% 1.9 mph S3.1 kmh S 3.1 mph5.0 kmh 29.92 in1013.2 mb 0.00 in0.0 mm 0.00 in0.0 mm 0.00 in0.0 mm
02:35 AM 69.4°F20.8°C 55.9°F13.3°C 62% 1.7 mph S2.7 kmh S 2.2 mph3.5 kmh 29.92 in1013.2 mb 0.00 in0.0 mm 0.00 in0.0 mm 0.00 in0.0 mm
02:30 AM 69.4°F20.8°C 55.4°F13.0°C 61% 1.2 mph S1.9 kmh S 2.2 mph3.5 kmh 29.92 in1013.2 mb 0.00 in0.0 mm 0.00 in0.0 mm 0.00 in0.0 mm
02:25 AM 70.0°F21.1°C 55.9°F13.3°C 61% 0.6 mph S1.0 kmh S 1.6 mph2.6 kmh 29.92 in1013.2 mb 0.00 in0.0 mm 0.00 in0.0 mm 0.00 in0.0 mm
02:20 AM 70.2°F21.2°C 55.7°F13.2°C 60% 0.5 mph S0.8 kmh S 1.6 mph2.6 kmh 29.92 in1013.2 mb 0.00 in0.0 mm 0.00 in0.0 mm 0.00 in0.0 mm
02:15 AM 70.2°F21.2°C 55.7°F13.2°C 60% 0.6 mph SW1.0 kmh SW 1.6 mph2.6 kmh 29.93 in1013.5 mb 0.00 in0.0 mm 0.00 in0.0 mm 0.00 in0.0 mm
02:10 AM 70.2°F21.2°C 55.7°F13.2°C 60% 0.4 mph WSW0.6 kmh WSW 1.6 mph2.6 kmh 29.93 in1013.5 mb 0.00 in0.0 mm 0.00 in0.0 mm 0.00 in0.0 mm
02:05 AM 70.7°F21.5°C 55.7°F13.2°C 59% Calm Calm 0.7 mph1.1 kmh 29.93 in1013.5 mb 0.00 in0.0 mm 0.00 in0.0 mm 0.00 in0.0 mm
02:00 AM 70.7°F21.5°C 55.7°F13.2°C 59% 0.3 mph SSW0.5 kmh SSW 2.2 mph3.5 kmh 29.93 in1013.5 mb 0.00 in0.0 mm 0.00 in0.0 mm 0.00 in0.0 mm
01:55 AM 71.1°F21.7°C 55.6°F13.1°C 58% 1.0 mph SSE1.6 kmh SSE 2.2 mph3.5 kmh 29.93 in1013.5 mb 0.00 in0.0 mm 0.00 in0.0 mm 0.00 in0.0 mm
01:50 AM 71.4°F21.9°C 55.9°F13.3°C 58% 0.6 mph SE1.0 kmh SE 2.2 mph3.5 kmh 29.93 in1013.5 mb 0.00 in0.0 mm 0.00 in0.0 mm 0.00 in0.0 mm
01:45 AM 71.4°F21.9°C 55.4°F13.0°C 57% 0.6 mph SSW1.0 kmh SSW 1.6 mph2.6 kmh 29.93 in1013.5 mb 0.00 in0.0 mm 0.00 in0.0 mm 0.00 in0.0 mm
01:40 AM 71.8°F22.1°C 55.8°F13.2°C 57% 1.7 mph S2.7 kmh S 3.8 mph6.1 kmh 29.93 in1013.5 mb 0.00 in0.0 mm 0.00 in0.0 mm 0.00 in0.0 mm
01:35 AM 71.6°F22.0°C 55.1°F12.8°C 56% 2.9 mph SSE4.7 kmh SSE 4.5 mph7.2 kmh 29.93 in1013.5 mb 0.00 in0.0 mm 0.00 in0.0 mm 0.00 in0.0 mm
01:30 AM 71.8°F22.1°C 55.3°F12.9°C 56% 2.7 mph SE4.3 kmh SE 4.5 mph7.2 kmh 29.93 in1013.5 mb 0.00 in0.0 mm 0.00 in0.0 mm 0.00 in0.0 mm
01:25 AM 71.8°F22.1°C 55.3°F12.9°C 56% 2.8 mph ESE4.5 kmh ESE 4.5 mph7.2 kmh 29.93 in1013.5 mb 0.00 in0.0 mm 0.00 in0.0 mm 0.00 in0.0 mm
01:20 AM 72.0°F22.2°C 54.9°F12.7°C 55% 3.0 mph ESE4.8 kmh ESE 4.5 mph7.2 kmh 29.93 in1013.5 mb 0.00 in0.0 mm 0.00 in0.0 mm 0.00 in0.0 mm
01:15 AM 72.1°F22.3°C 55.1°F12.8°C 55% 2.3 mph SE3.7 kmh SE 3.1 mph5.0 kmh 29.93 in1013.5 mb 0.00 in0.0 mm 0.00 in0.0 mm 0.00 in0.0 mm
01:10 AM 72.3°F22.4°C 55.3°F12.9°C 55% 2.4 mph SE3.9 kmh SE 3.1 mph5.0 kmh 29.92 in1013.2 mb 0.00 in0.0 mm 0.00 in0.0 mm 0.00 in0.0 mm
01:05 AM 72.1°F22.3°C 55.1°F12.8°C 55% 2.8 mph SE4.5 kmh SE 5.4 mph8.7 kmh 29.93 in1013.5 mb 0.00 in0.0 mm 0.00 in0.0 mm 0.00 in0.0 mm
01:00 AM 72.1°F22.3°C 54.6°F12.6°C 54% 2.3 mph SE3.7 kmh SE 5.4 mph8.7 kmh 29.93 in1013.5 mb 0.00 in0.0 mm 0.00 in0.0 mm 0.00 in0.0 mm
12:55 AM 72.5°F22.5°C 54.9°F12.7°C 54% 2.5 mph SSE4.0 kmh SSE 3.8 mph6.1 kmh 29.93 in1013.5 mb 0.00 in0.0 mm 0.00 in0.0 mm 0.00 in0.0 mm
12:50 AM 73.0°F22.8°C 55.4°F13.0°C 54% 3.3 mph SE5.3 kmh SE 4.5 mph7.2 kmh 29.92 in1013.2 mb 0.00 in0.0 mm 0.00 in0.0 mm 0.00 in0.0 mm
12:45 AM 73.0°F22.8°C 54.9°F12.7°C 53% 3.1 mph SE5.0 kmh SE 4.5 mph7.2 kmh 29.92 in1013.2 mb 0.00 in0.0 mm 0.00 in0.0 mm 0.00 in0.0 mm
12:40 AM 73.2°F22.9°C 55.1°F12.8°C 53% 2.9 mph SSE4.7 kmh SSE 3.8 mph6.1 kmh 29.92 in1013.2 mb 0.00 in0.0 mm 0.00 in0.0 mm 0.00 in0.0 mm
12:35 AM 73.4°F23.0°C 55.3°F12.9°C 53% 3.2 mph SE5.1 kmh SE 3.8 mph6.1 kmh 29.92 in1013.2 mb 0.00 in0.0 mm 0.00 in0.0 mm 0.00 in0.0 mm
12:30 AM 73.4°F23.0°C 55.3°F12.9°C 53% 3.1 mph SE5.0 kmh SE 3.8 mph6.1 kmh 29.93 in1013.5 mb 0.00 in0.0 mm 0.00 in0.0 mm 0.00 in0.0 mm
12:25 AM 73.4°F23.0°C 55.3°F12.9°C 53% 3.8 mph ESE6.1 kmh ESE 5.4 mph8.7 kmh 29.93 in1013.5 mb 0.00 in0.0 mm 0.00 in0.0 mm 0.00 in0.0 mm
12:20 AM 73.2°F22.9°C 54.6°F12.6°C 52% 3.9 mph E6.3 kmh E 5.4 mph8.7 kmh 29.93 in1013.5 mb 0.00 in0.0 mm 0.00 in0.0 mm 0.00 in0.0 mm
12:15 AM 73.2°F22.9°C 54.0°F12.2°C 51% 2.7 mph ESE4.3 kmh ESE 5.4 mph8.7 kmh 29.93 in1013.5 mb 0.00 in0.0 mm 0.00 in0.0 mm 0.00 in0.0 mm
12:10 AM 73.4°F23.0°C 53.7°F12.1°C 50% 1.8 mph SE2.9 kmh SE 3.1 mph5.0 kmh 29.93 in1013.5 mb 0.00 in0.0 mm 0.00 in0.0 mm 0.00 in0.0 mm
12:05 AM 73.8°F23.2°C 54.0°F12.2°C 50% 1.5 mph S2.4 kmh S 2.2 mph3.5 kmh 29.92 in1013.2 mb 0.00 in0.0 mm 0.00 in0.0 mm 0.00 in0.0 mm
12:00 AM 74.1°F23.4°C 54.3°F12.4°C 50% 1.9 mph SSE3.1 kmh SSE 2.2 mph3.5 kmh 29.92 in1013.2 mb 0.00 in0.0 mm 0.00 in0.0 mm 0.00 in0.0 mm